sensor_id;sensor_type;location;lat;lon;timestamp;P1;durP1;ratioP1;P2;durP2;ratioP2
84113;SDS011;74483;48.846;2.358;2024-03-08T00:01:59;6.20;;;4.95;;
84113;SDS011;74483;48.846;2.358;2024-03-08T00:04:25;5.53;;;5.03;;
84113;SDS011;74483;48.846;2.358;2024-03-08T00:06:51;5.80;;;5.20;;
84113;SDS011;74483;48.846;2.358;2024-03-08T00:09:16;5.72;;;5.13;;
84113;SDS011;74483;48.846;2.358;2024-03-08T00:11:42;5.75;;;5.20;;
84113;SDS011;74483;48.846;2.358;2024-03-08T00:14:07;5.90;;;5.32;;
84113;SDS011;74483;48.846;2.358;2024-03-08T00:16:33;5.85;;;5.25;;
84113;SDS011;74483;48.846;2.358;2024-03-08T00:19:00;5.70;;;5.20;;
84113;SDS011;74483;48.846;2.358;2024-03-08T00:21:26;5.88;;;5.28;;
84113;SDS011;74483;48.846;2.358;2024-03-08T00:23:54;6.13;;;5.53;;
84113;SDS011;74483;48.846;2.358;2024-03-08T00:26:20;5.45;;;4.90;;
84113;SDS011;74483;48.846;2.358;2024-03-08T00:28:47;5.85;;;5.25;;
84113;SDS011;74483;48.846;2.358;2024-03-08T00:31:14;5.82;;;5.05;;
84113;SDS011;74483;48.846;2.358;2024-03-08T00:33:41;6.13;;;5.22;;
84113;SDS011;74483;48.846;2.358;2024-03-08T00:36:07;6.00;;;5.40;;
84113;SDS011;74483;48.846;2.358;2024-03-08T00:38:33;5.47;;;4.97;;
84113;SDS011;74483;48.846;2.358;2024-03-08T00:40:59;6.38;;;5.53;;
84113;SDS011;74483;48.846;2.358;2024-03-08T00:43:25;6.10;;;5.50;;
84113;SDS011;74483;48.846;2.358;2024-03-08T00:45:51;5.60;;;5.00;;
84113;SDS011;74483;48.846;2.358;2024-03-08T00:48:16;6.07;;;5.47;;
84113;SDS011;74483;48.846;2.358;2024-03-08T00:50:42;5.93;;;5.32;;
84113;SDS011;74483;48.846;2.358;2024-03-08T00:53:10;5.43;;;4.93;;
84113;SDS011;74483;48.846;2.358;2024-03-08T00:55:36;5.97;;;5.05;;
84113;SDS011;74483;48.846;2.358;2024-03-08T00:58:03;5.95;;;5.35;;
84113;SDS011;74483;48.846;2.358;2024-03-08T01:00:29;5.32;;;4.82;;
84113;SDS011;74483;48.846;2.358;2024-03-08T01:02:54;5.88;;;5.28;;
84113;SDS011;74483;48.846;2.358;2024-03-08T01:05:20;5.55;;;5.00;;
84113;SDS011;74483;48.846;2.358;2024-03-08T01:07:46;6.85;;;5.38;;
84113;SDS011;74483;48.846;2.358;2024-03-08T01:10:12;5.28;;;4.78;;
84113;SDS011;74483;48.846;2.358;2024-03-08T01:12:38;5.60;;;5.00;;
84113;SDS011;74483;48.846;2.358;2024-03-08T01:15:04;5.70;;;5.05;;
84113;SDS011;74483;48.846;2.358;2024-03-08T01:17:30;5.45;;;4.95;;
84113;SDS011;74483;48.846;2.358;2024-03-08T01:19:56;5.40;;;4.90;;
84113;SDS011;74483;48.846;2.358;2024-03-08T01:22:21;6.40;;;5.15;;
84113;SDS011;74483;48.846;2.358;2024-03-08T01:24:47;5.90;;;5.30;;
84113;SDS011;74483;48.846;2.358;2024-03-08T01:27:13;6.07;;;5.47;;
84113;SDS011;74483;48.846;2.358;2024-03-08T01:29:39;6.25;;;5.65;;
84113;SDS011;74483;48.846;2.358;2024-03-08T01:32:05;6.20;;;5.60;;
84113;SDS011;74483;48.846;2.358;2024-03-08T01:34:31;5.55;;;5.03;;
84113;SDS011;74483;48.846;2.358;2024-03-08T01:36:58;5.65;;;5.10;;
84113;SDS011;74483;48.846;2.358;2024-03-08T01:39:24;6.10;;;5.50;;
84113;SDS011;74483;48.846;2.358;2024-03-08T01:41:50;5.45;;;4.95;;
84113;SDS011;74483;48.846;2.358;2024-03-08T01:44:16;6.40;;;5.72;;
84113;SDS011;74483;48.846;2.358;2024-03-08T01:46:45;6.10;;;5.50;;
84113;SDS011;74483;48.846;2.358;2024-03-08T01:49:12;6.43;;;5.60;;
84113;SDS011;74483;48.846;2.358;2024-03-08T01:51:39;5.97;;;5.38;;
84113;SDS011;74483;48.846;2.358;2024-03-08T01:54:06;5.72;;;5.18;;
84113;SDS011;74483;48.846;2.358;2024-03-08T01:56:34;6.97;;;5.40;;
84113;SDS011;74483;48.846;2.358;2024-03-08T01:59:02;6.03;;;5.30;;
84113;SDS011;74483;48.846;2.358;2024-03-08T02:01:29;5.60;;;5.07;;
84113;SDS011;74483;48.846;2.358;2024-03-08T02:03:55;6.20;;;5.60;;
84113;SDS011;74483;48.846;2.358;2024-03-08T02:06:20;5.72;;;5.15;;
84113;SDS011;74483;48.846;2.358;2024-03-08T02:08:46;6.22;;;5.63;;
84113;SDS011;74483;48.846;2.358;2024-03-08T02:11:12;6.18;;;5.57;;
84113;SDS011;74483;48.846;2.358;2024-03-08T02:13:38;6.07;;;5.43;;
84113;SDS011;74483;48.846;2.358;2024-03-08T02:16:04;5.57;;;5.00;;
84113;SDS011;74483;48.846;2.358;2024-03-08T02:18:32;5.82;;;5.22;;
84113;SDS011;74483;48.846;2.358;2024-03-08T02:21:00;6.57;;;5.88;;
84113;SDS011;74483;48.846;2.358;2024-03-08T02:23:27;5.40;;;4.90;;
84113;SDS011;74483;48.846;2.358;2024-03-08T02:25:54;5.68;;;5.13;;
84113;SDS011;74483;48.846;2.358;2024-03-08T02:28:21;6.68;;;5.40;;
84113;SDS011;74483;48.846;2.358;2024-03-08T02:30:47;6.10;;;5.50;;
84113;SDS011;74483;48.846;2.358;2024-03-08T02:33:16;5.85;;;5.25;;
84113;SDS011;74483;48.846;2.358;2024-03-08T02:35:46;5.97;;;5.28;;
84113;SDS011;74483;48.846;2.358;2024-03-08T02:38:13;5.85;;;5.25;;
84113;SDS011;74483;48.846;2.358;2024-03-08T02:40:43;6.07;;;5.47;;
84113;SDS011;74483;48.846;2.358;2024-03-08T02:43:11;6.38;;;5.68;;
84113;SDS011;74483;48.846;2.358;2024-03-08T02:45:37;6.00;;;5.40;;
84113;SDS011;74483;48.846;2.358;2024-03-08T02:48:03;6.88;;;5.63;;
84113;SDS011;74483;48.846;2.358;2024-03-08T02:50:31;6.18;;;5.30;;
84113;SDS011;74483;48.846;2.358;2024-03-08T02:52:57;6.68;;;5.50;;
84113;SDS011;74483;48.846;2.358;2024-03-08T02:55:22;5.75;;;5.15;;
84113;SDS011;74483;48.846;2.358;2024-03-08T02:57:51;5.82;;;5.32;;
84113;SDS011;74483;48.846;2.358;2024-03-08T03:00:17;6.22;;;5.63;;
84113;SDS011;74483;48.846;2.358;2024-03-08T03:02:44;5.82;;;5.20;;
84113;SDS011;74483;48.846;2.358;2024-03-08T03:05:10;5.90;;;5.30;;
84113;SDS011;74483;48.846;2.358;2024-03-08T03:07:36;6.32;;;5.70;;
84113;SDS011;74483;48.846;2.358;2024-03-08T03:10:02;6.18;;;5.57;;
84113;SDS011;74483;48.846;2.358;2024-03-08T03:12:29;6.40;;;5.63;;
84113;SDS011;74483;48.846;2.358;2024-03-08T03:14:55;5.90;;;5.30;;
84113;SDS011;74483;48.846;2.358;2024-03-08T03:17:23;5.97;;;5.25;;
84113;SDS011;74483;48.846;2.358;2024-03-08T03:19:50;5.90;;;5.18;;
84113;SDS011;74483;48.846;2.358;2024-03-08T03:22:16;5.65;;;5.15;;
84113;SDS011;74483;48.846;2.358;2024-03-08T03:24:43;5.82;;;5.22;;
84113;SDS011;74483;48.846;2.358;2024-03-08T03:27:11;6.13;;;5.32;;
84113;SDS011;74483;48.846;2.358;2024-03-08T03:29:40;5.90;;;5.25;;
84113;SDS011;74483;48.846;2.358;2024-03-08T03:32:10;6.85;;;5.82;;
84113;SDS011;74483;48.846;2.358;2024-03-08T03:34:37;6.28;;;5.68;;
84113;SDS011;74483;48.846;2.358;2024-03-08T03:37:03;5.97;;;5.38;;
84113;SDS011;74483;48.846;2.358;2024-03-08T03:39:29;5.68;;;5.18;;
84113;SDS011;74483;48.846;2.358;2024-03-08T03:41:59;6.55;;;5.63;;
84113;SDS011;74483;48.846;2.358;2024-03-08T03:44:27;6.55;;;5.60;;
84113;SDS011;74483;48.846;2.358;2024-03-08T03:46:53;6.38;;;5.57;;
84113;SDS011;74483;48.846;2.358;2024-03-08T03:49:19;6.20;;;5.60;;
84113;SDS011;74483;48.846;2.358;2024-03-08T03:51:45;5.88;;;5.28;;
84113;SDS011;74483;48.846;2.358;2024-03-08T03:54:11;5.90;;;5.18;;
84113;SDS011;74483;48.846;2.358;2024-03-08T03:56:37;6.15;;;5.10;;
84113;SDS011;74483;48.846;2.358;2024-03-08T03:59:03;6.63;;;5.55;;
84113;SDS011;74483;48.846;2.358;2024-03-08T04:01:29;6.30;;;5.65;;
84113;SDS011;74483;48.846;2.358;2024-03-08T04:03:54;5.80;;;5.20;;
84113;SDS011;74483;48.846;2.358;2024-03-08T04:06:20;5.47;;;4.93;;
84113;SDS011;74483;48.846;2.358;2024-03-08T04:08:47;5.97;;;5.38;;
84113;SDS011;74483;48.846;2.358;2024-03-08T04:11:13;5.65;;;5.03;;
84113;SDS011;74483;48.846;2.358;2024-03-08T04:13:41;5.82;;;5.22;;
84113;SDS011;74483;48.846;2.358;2024-03-08T04:16:06;6.13;;;5.13;;
84113;SDS011;74483;48.846;2.358;2024-03-08T04:18:33;6.22;;;5.57;;
84113;SDS011;74483;48.846;2.358;2024-03-08T04:21:01;7.78;;;5.53;;
84113;SDS011;74483;48.846;2.358;2024-03-08T04:23:27;5.65;;;5.15;;
84113;SDS011;74483;48.846;2.358;2024-03-08T04:25:53;6.45;;;5.75;;
84113;SDS011;74483;48.846;2.358;2024-03-08T04:28:19;6.07;;;5.47;;
84113;SDS011;74483;48.846;2.358;2024-03-08T04:30:45;5.70;;;5.10;;
84113;SDS011;74483;48.846;2.358;2024-03-08T04:33:11;6.68;;;5.97;;
84113;SDS011;74483;48.846;2.358;2024-03-08T04:35:36;6.70;;;5.60;;
84113;SDS011;74483;48.846;2.358;2024-03-08T04:38:02;6.70;;;5.93;;
84113;SDS011;74483;48.846;2.358;2024-03-08T04:40:30;5.93;;;5.30;;
84113;SDS011;74483;48.846;2.358;2024-03-08T04:42:56;7.03;;;5.78;;
84113;SDS011;74483;48.846;2.358;2024-03-08T04:45:24;6.22;;;5.63;;
84113;SDS011;74483;48.846;2.358;2024-03-08T04:47:51;6.03;;;5.22;;
84113;SDS011;74483;48.846;2.358;2024-03-08T04:50:17;6.68;;;5.68;;
84113;SDS011;74483;48.846;2.358;2024-03-08T04:52:43;6.38;;;5.68;;
84113;SDS011;74483;48.846;2.358;2024-03-08T04:55:09;6.05;;;5.45;;
84113;SDS011;74483;48.846;2.358;2024-03-08T04:57:34;5.88;;;5.25;;
84113;SDS011;74483;48.846;2.358;2024-03-08T05:00:01;6.00;;;5.38;;
84113;SDS011;74483;48.846;2.358;2024-03-08T05:02:39;6.03;;;5.43;;
84113;SDS011;74483;48.846;2.358;2024-03-08T05:05:06;5.68;;;5.07;;
84113;SDS011;74483;48.846;2.358;2024-03-08T05:07:33;5.82;;;5.18;;
84113;SDS011;74483;48.846;2.358;2024-03-08T05:09:59;6.65;;;5.88;;
84113;SDS011;74483;48.846;2.358;2024-03-08T05:12:24;6.03;;;5.43;;
84113;SDS011;74483;48.846;2.358;2024-03-08T05:14:51;6.10;;;5.38;;
84113;SDS011;74483;48.846;2.358;2024-03-08T05:17:16;6.80;;;5.88;;
84113;SDS011;74483;48.846;2.358;2024-03-08T05:19:42;6.90;;;5.65;;
84113;SDS011;74483;48.846;2.358;2024-03-08T05:22:08;6.43;;;5.70;;
84113;SDS011;74483;48.846;2.358;2024-03-08T05:24:34;6.65;;;5.95;;
84113;SDS011;74483;48.846;2.358;2024-03-08T05:27:00;6.07;;;5.47;;
84113;SDS011;74483;48.846;2.358;2024-03-08T05:29:27;5.85;;;5.25;;
84113;SDS011;74483;48.846;2.358;2024-03-08T05:31:54;6.47;;;5.50;;
84113;SDS011;74483;48.846;2.358;2024-03-08T05:34:20;6.18;;;5.45;;
84113;SDS011;74483;48.846;2.358;2024-03-08T05:36:47;6.38;;;5.25;;
84113;SDS011;74483;48.846;2.358;2024-03-08T05:39:14;5.20;;;4.68;;
84113;SDS011;74483;48.846;2.358;2024-03-08T05:41:44;6.38;;;5.45;;
84113;SDS011;74483;48.846;2.358;2024-03-08T05:44:10;7.45;;;5.57;;
84113;SDS011;74483;48.846;2.358;2024-03-08T05:46:36;7.47;;;5.47;;
84113;SDS011;74483;48.846;2.358;2024-03-08T05:49:05;7.22;;;5.63;;
84113;SDS011;74483;48.846;2.358;2024-03-08T05:51:32;6.38;;;5.70;;
84113;SDS011;74483;48.846;2.358;2024-03-08T05:54:00;6.57;;;5.10;;
84113;SDS011;74483;48.846;2.358;2024-03-08T05:56:30;6.50;;;5.55;;
84113;SDS011;74483;48.846;2.358;2024-03-08T05:58:56;5.93;;;5.13;;
84113;SDS011;74483;48.846;2.358;2024-03-08T06:01:23;7.10;;;5.95;;
84113;SDS011;74483;48.846;2.358;2024-03-08T06:03:49;6.70;;;5.90;;
84113;SDS011;74483;48.846;2.358;2024-03-08T06:06:15;6.10;;;5.25;;
84113;SDS011;74483;48.846;2.358;2024-03-08T06:08:41;6.10;;;5.50;;
84113;SDS011;74483;48.846;2.358;2024-03-08T06:11:08;6.18;;;5.18;;
84113;SDS011;74483;48.846;2.358;2024-03-08T06:13:34;6.50;;;5.43;;
84113;SDS011;74483;48.846;2.358;2024-03-08T06:16:00;6.90;;;5.65;;
84113;SDS011;74483;48.846;2.358;2024-03-08T06:18:29;6.18;;;5.30;;
84113;SDS011;74483;48.846;2.358;2024-03-08T06:20:57;6.20;;;5.50;;
84113;SDS011;74483;48.846;2.358;2024-03-08T06:23:23;6.30;;;5.32;;
84113;SDS011;74483;48.846;2.358;2024-03-08T06:25:49;6.38;;;5.47;;
84113;SDS011;74483;48.846;2.358;2024-03-08T06:28:14;5.63;;;5.05;;
84113;SDS011;74483;48.846;2.358;2024-03-08T06:30:40;5.75;;;5.15;;
84113;SDS011;74483;48.846;2.358;2024-03-08T06:33:06;6.20;;;4.97;;
84113;SDS011;74483;48.846;2.358;2024-03-08T06:35:32;5.82;;;5.22;;
84113;SDS011;74483;48.846;2.358;2024-03-08T06:38:00;6.00;;;5.40;;
84113;SDS011;74483;48.846;2.358;2024-03-08T06:40:26;7.80;;;5.78;;
84113;SDS011;74483;48.846;2.358;2024-03-08T06:42:51;5.45;;;4.95;;
84113;SDS011;74483;48.846;2.358;2024-03-08T06:45:17;6.60;;;5.50;;
84113;SDS011;74483;48.846;2.358;2024-03-08T06:47:46;6.07;;;5.20;;
84113;SDS011;74483;48.846;2.358;2024-03-08T06:50:12;5.53;;;4.97;;
84113;SDS011;74483;48.846;2.358;2024-03-08T06:52:37;5.82;;;5.07;;
84113;SDS011;74483;48.846;2.358;2024-03-08T06:55:04;6.45;;;5.45;;
84113;SDS011;74483;48.846;2.358;2024-03-08T06:57:30;6.15;;;5.25;;
84113;SDS011;74483;48.846;2.358;2024-03-08T06:59:56;5.93;;;5.32;;
84113;SDS011;74483;48.846;2.358;2024-03-08T07:02:24;6.18;;;5.25;;
84113;SDS011;74483;48.846;2.358;2024-03-08T07:04:50;5.63;;;5.03;;
84113;SDS011;74483;48.846;2.358;2024-03-08T07:07:18;6.90;;;5.53;;
84113;SDS011;74483;48.846;2.358;2024-03-08T07:09:45;6.43;;;5.50;;
84113;SDS011;74483;48.846;2.358;2024-03-08T07:12:11;5.40;;;4.90;;
84113;SDS011;74483;48.846;2.358;2024-03-08T07:14:38;6.07;;;5.47;;
84113;SDS011;74483;48.846;2.358;2024-03-08T07:17:06;5.93;;;5.32;;
84113;SDS011;74483;48.846;2.358;2024-03-08T07:19:34;6.78;;;5.25;;
84113;SDS011;74483;48.846;2.358;2024-03-08T07:21:59;6.05;;;5.28;;
84113;SDS011;74483;48.846;2.358;2024-03-08T07:24:25;6.70;;;5.28;;
84113;SDS011;74483;48.846;2.358;2024-03-08T07:27:09;6.68;;;5.32;;
84113;SDS011;74483;48.846;2.358;2024-03-08T07:29:37;6.53;;;5.25;;
84113;SDS011;74483;48.846;2.358;2024-03-08T07:32:02;6.35;;;5.15;;
84113;SDS011;74483;48.846;2.358;2024-03-08T07:34:46;6.97;;;5.50;;
84113;SDS011;74483;48.846;2.358;2024-03-08T07:37:15;6.15;;;5.32;;
84113;SDS011;74483;48.846;2.358;2024-03-08T07:39:41;5.72;;;5.15;;
84113;SDS011;74483;48.846;2.358;2024-03-08T07:42:08;6.97;;;5.78;;
84113;SDS011;74483;48.846;2.358;2024-03-08T07:44:35;6.72;;;5.57;;
84113;SDS011;74483;48.846;2.358;2024-03-08T07:47:00;6.65;;;5.18;;
84113;SDS011;74483;48.846;2.358;2024-03-08T07:49:26;6.22;;;5.35;;
84113;SDS011;74483;48.846;2.358;2024-03-08T07:51:51;6.53;;;5.45;;
84113;SDS011;74483;48.846;2.358;2024-03-08T07:54:17;6.95;;;5.40;;
84113;SDS011;74483;48.846;2.358;2024-03-08T07:56:43;6.65;;;5.45;;
84113;SDS011;74483;48.846;2.358;2024-03-08T07:59:08;5.45;;;4.90;;
84113;SDS011;74483;48.846;2.358;2024-03-08T08:01:36;5.90;;;5.30;;
84113;SDS011;74483;48.846;2.358;2024-03-08T08:04:01;5.70;;;5.10;;
84113;SDS011;74483;48.846;2.358;2024-03-08T08:06:27;6.15;;;5.40;;
84113;SDS011;74483;48.846;2.358;2024-03-08T08:08:56;6.18;;;5.13;;
84113;SDS011;74483;48.846;2.358;2024-03-08T08:11:22;7.35;;;5.03;;
84113;SDS011;74483;48.846;2.358;2024-03-08T08:13:50;6.38;;;5.38;;
84113;SDS011;74483;48.846;2.358;2024-03-08T08:16:16;6.45;;;5.40;;
84113;SDS011;74483;48.846;2.358;2024-03-08T08:18:41;5.50;;;4.90;;
84113;SDS011;74483;48.846;2.358;2024-03-08T08:21:07;5.75;;;5.15;;
84113;SDS011;74483;48.846;2.358;2024-03-08T08:23:33;5.82;;;5.18;;
84113;SDS011;74483;48.846;2.358;2024-03-08T08:25:58;6.18;;;5.57;;
84113;SDS011;74483;48.846;2.358;2024-03-08T08:28:24;5.97;;;5.22;;
84113;SDS011;74483;48.846;2.358;2024-03-08T08:30:50;5.88;;;5.25;;
84113;SDS011;74483;48.846;2.358;2024-03-08T08:33:16;6.38;;;5.18;;
84113;SDS011;74483;48.846;2.358;2024-03-08T08:35:41;6.82;;;5.78;;
84113;SDS011;74483;48.846;2.358;2024-03-08T08:38:07;6.20;;;5.35;;
84113;SDS011;74483;48.846;2.358;2024-03-08T08:40:34;5.90;;;5.10;;
84113;SDS011;74483;48.846;2.358;2024-03-08T08:43:01;6.68;;;5.13;;
84113;SDS011;74483;48.846;2.358;2024-03-08T08:45:29;5.80;;;5.15;;
84113;SDS011;74483;48.846;2.358;2024-03-08T08:47:55;5.75;;;4.85;;
84113;SDS011;74483;48.846;2.358;2024-03-08T08:50:21;5.68;;;5.00;;
84113;SDS011;74483;48.846;2.358;2024-03-08T08:52:51;6.72;;;5.20;;
84113;SDS011;74483;48.846;2.358;2024-03-08T08:55:18;5.72;;;4.82;;
84113;SDS011;74483;48.846;2.358;2024-03-08T08:57:46;6.25;;;5.18;;
84113;SDS011;74483;48.846;2.358;2024-03-08T09:00:12;6.38;;;5.40;;
84113;SDS011;74483;48.846;2.358;2024-03-08T09:02:40;6.75;;;5.10;;
84113;SDS011;74483;48.846;2.358;2024-03-08T09:05:06;7.22;;;5.10;;
84113;SDS011;74483;48.846;2.358;2024-03-08T09:07:36;6.25;;;5.05;;
84113;SDS011;74483;48.846;2.358;2024-03-08T09:10:02;6.60;;;5.05;;
84113;SDS011;74483;48.846;2.358;2024-03-08T09:12:29;6.15;;;5.22;;
84113;SDS011;74483;48.846;2.358;2024-03-08T09:14:54;9.18;;;5.80;;
84113;SDS011;74483;48.846;2.358;2024-03-08T09:17:20;6.57;;;4.85;;
84113;SDS011;74483;48.846;2.358;2024-03-08T09:19:49;5.53;;;4.80;;
84113;SDS011;74483;48.846;2.358;2024-03-08T09:22:14;6.63;;;5.13;;
84113;SDS011;74483;48.846;2.358;2024-03-08T09:24:40;7.03;;;4.78;;
84113;SDS011;74483;48.846;2.358;2024-03-08T09:27:08;6.45;;;4.78;;
84113;SDS011;74483;48.846;2.358;2024-03-08T09:29:34;5.15;;;4.60;;
84113;SDS011;74483;48.846;2.358;2024-03-08T09:32:01;5.68;;;4.40;;
84113;SDS011;74483;48.846;2.358;2024-03-08T09:34:26;6.38;;;4.82;;
84113;SDS011;74483;48.846;2.358;2024-03-08T09:36:52;5.55;;;4.68;;
84113;SDS011;74483;48.846;2.358;2024-03-08T09:39:18;5.97;;;4.30;;
84113;SDS011;74483;48.846;2.358;2024-03-08T09:41:46;5.68;;;4.22;;
84113;SDS011;74483;48.846;2.358;2024-03-08T09:44:15;7.68;;;4.63;;
84113;SDS011;74483;48.846;2.358;2024-03-08T09:46:41;5.10;;;4.40;;
84113;SDS011;74483;48.846;2.358;2024-03-08T09:49:07;6.28;;;4.47;;
84113;SDS011;74483;48.846;2.358;2024-03-08T09:51:34;6.55;;;4.57;;
84113;SDS011;74483;48.846;2.358;2024-03-08T09:54:05;8.05;;;4.60;;
84113;SDS011;74483;48.846;2.358;2024-03-08T09:56:34;6.75;;;4.28;;
84113;SDS011;74483;48.846;2.358;2024-03-08T09:59:01;5.45;;;4.35;;
84113;SDS011;74483;48.846;2.358;2024-03-08T10:02:05;6.20;;;4.18;;
84113;SDS011;74483;48.846;2.358;2024-03-08T10:04:32;6.18;;;4.75;;
84113;SDS011;74483;48.846;2.358;2024-03-08T10:06:58;5.97;;;4.47;;
84113;SDS011;74483;48.846;2.358;2024-03-08T10:09:24;5.68;;;4.05;;
84113;SDS011;74483;48.846;2.358;2024-03-08T10:11:58;5.43;;;4.40;;
84113;SDS011;74483;48.846;2.358;2024-03-08T10:14:24;5.85;;;4.25;;
84113;SDS011;74483;48.846;2.358;2024-03-08T10:16:51;5.85;;;4.30;;
84113;SDS011;74483;48.846;2.358;2024-03-08T10:19:17;6.10;;;4.35;;
84113;SDS011;74483;48.846;2.358;2024-03-08T10:21:49;5.35;;;4.47;;
84113;SDS011;74483;48.846;2.358;2024-03-08T10:24:18;5.40;;;4.00;;
84113;SDS011;74483;48.846;2.358;2024-03-08T10:26:44;4.70;;;4.03;;
84113;SDS011;74483;48.846;2.358;2024-03-08T10:29:09;5.55;;;4.03;;
84113;SDS011;74483;48.846;2.358;2024-03-08T10:31:40;6.50;;;4.20;;
84113;SDS011;74483;48.846;2.358;2024-03-08T10:34:09;4.93;;;3.75;;
84113;SDS011;74483;48.846;2.358;2024-03-08T10:36:35;5.90;;;4.00;;
84113;SDS011;74483;48.846;2.358;2024-03-08T10:39:03;6.60;;;3.83;;
84113;SDS011;74483;48.846;2.358;2024-03-08T10:42:02;5.35;;;3.78;;
84113;SDS011;74483;48.846;2.358;2024-03-08T10:49:37;5.75;;;4.13;;
84113;SDS011;74483;48.846;2.358;2024-03-08T10:52:04;4.13;;;3.72;;
84113;SDS011;74483;48.846;2.358;2024-03-08T10:54:33;5.00;;;3.97;;
84113;SDS011;74483;48.846;2.358;2024-03-08T10:57:03;4.05;;;3.53;;
84113;SDS011;74483;48.846;2.358;2024-03-08T10:59:31;4.45;;;3.53;;
84113;SDS011;74483;48.846;2.358;2024-03-08T11:01:58;5.43;;;3.55;;
84113;SDS011;74483;48.846;2.358;2024-03-08T11:04:24;4.72;;;3.10;;
84113;SDS011;74483;48.846;2.358;2024-03-08T11:06:51;5.28;;;3.88;;
84113;SDS011;74483;48.846;2.358;2024-03-08T11:12:20;4.07;;;3.50;;
84113;SDS011;74483;48.846;2.358;2024-03-08T11:14:49;4.82;;;3.15;;
84113;SDS011;74483;48.846;2.358;2024-03-08T11:17:16;5.03;;;3.38;;
84113;SDS011;74483;48.846;2.358;2024-03-08T11:20:04;5.13;;;3.55;;
84113;SDS011;74483;48.846;2.358;2024-03-08T11:22:41;4.43;;;3.17;;
84113;SDS011;74483;48.846;2.358;2024-03-08T11:25:33;4.72;;;3.40;;
84113;SDS011;74483;48.846;2.358;2024-03-08T11:28:15;3.85;;;3.15;;
84113;SDS011;74483;48.846;2.358;2024-03-08T11:30:45;4.00;;;3.10;;
84113;SDS011;74483;48.846;2.358;2024-03-08T11:33:30;4.93;;;3.25;;
84113;SDS011;74483;48.846;2.358;2024-03-08T11:39:00;4.80;;;3.47;;
84113;SDS011;74483;48.846;2.358;2024-03-08T11:41:34;5.20;;;3.13;;
84113;SDS011;74483;48.846;2.358;2024-03-08T11:44:03;4.90;;;3.20;;
84113;SDS011;74483;48.846;2.358;2024-03-08T11:46:30;4.25;;;3.10;;
84113;SDS011;74483;48.846;2.358;2024-03-08T11:48:56;4.97;;;3.50;;
84113;SDS011;74483;48.846;2.358;2024-03-08T11:51:22;5.38;;;3.47;;
84113;SDS011;74483;48.846;2.358;2024-03-08T11:53:49;3.63;;;2.92;;
84113;SDS011;74483;48.846;2.358;2024-03-08T11:56:15;4.68;;;2.97;;
84113;SDS011;74483;48.846;2.358;2024-03-08T11:58:41;4.10;;;2.97;;
84113;SDS011;74483;48.846;2.358;2024-03-08T12:01:17;4.03;;;3.20;;
84113;SDS011;74483;48.846;2.358;2024-03-08T12:03:43;4.35;;;3.10;;
84113;SDS011;74483;48.846;2.358;2024-03-08T12:06:09;4.10;;;3.30;;
84113;SDS011;74483;48.846;2.358;2024-03-08T12:08:35;4.68;;;3.08;;
84113;SDS011;74483;48.846;2.358;2024-03-08T12:11:03;4.13;;;3.08;;
84113;SDS011;74483;48.846;2.358;2024-03-08T12:13:30;3.35;;;2.70;;
84113;SDS011;74483;48.846;2.358;2024-03-08T12:15:57;3.30;;;2.90;;
84113;SDS011;74483;48.846;2.358;2024-03-08T12:18:24;5.63;;;3.00;;
84113;SDS011;74483;48.846;2.358;2024-03-08T12:21:12;3.55;;;2.95;;
84113;SDS011;74483;48.846;2.358;2024-03-08T12:23:45;5.15;;;2.90;;
84113;SDS011;74483;48.846;2.358;2024-03-08T12:26:14;3.25;;;2.80;;
84113;SDS011;74483;48.846;2.358;2024-03-08T12:28:41;4.55;;;2.80;;
84113;SDS011;74483;48.846;2.358;2024-03-08T12:31:09;4.32;;;2.78;;
84113;SDS011;74483;48.846;2.358;2024-03-08T12:33:37;3.92;;;3.00;;
84113;SDS011;74483;48.846;2.358;2024-03-08T12:36:16;4.45;;;2.70;;
84113;SDS011;74483;48.846;2.358;2024-03-08T12:38:45;3.25;;;2.50;;
84113;SDS011;74483;48.846;2.358;2024-03-08T12:41:15;4.00;;;2.65;;
84113;SDS011;74483;48.846;2.358;2024-03-08T12:43:42;3.35;;;2.38;;
84113;SDS011;74483;48.846;2.358;2024-03-08T12:46:13;3.88;;;2.70;;
84113;SDS011;74483;48.846;2.358;2024-03-08T12:48:39;4.78;;;2.67;;
84113;SDS011;74483;48.846;2.358;2024-03-08T12:51:08;2.80;;;2.35;;
84113;SDS011;74483;48.846;2.358;2024-03-08T12:53:35;2.85;;;2.53;;
84113;SDS011;74483;48.846;2.358;2024-03-08T12:56:01;5.22;;;2.65;;
84113;SDS011;74483;48.846;2.358;2024-03-08T12:58:28;3.17;;;2.53;;
84113;SDS011;74483;48.846;2.358;2024-03-08T13:00:54;3.50;;;2.88;;
84113;SDS011;74483;48.846;2.358;2024-03-08T13:03:20;4.82;;;2.63;;
84113;SDS011;74483;48.846;2.358;2024-03-08T13:05:47;2.67;;;2.40;;
84113;SDS011;74483;48.846;2.358;2024-03-08T13:08:14;4.13;;;2.45;;
84113;SDS011;74483;48.846;2.358;2024-03-08T13:10:41;3.42;;;2.53;;
84113;SDS011;74483;48.846;2.358;2024-03-08T13:13:09;2.92;;;2.20;;
84113;SDS011;74483;48.846;2.358;2024-03-08T13:15:35;6.65;;;2.60;;
84113;SDS011;74483;48.846;2.358;2024-03-08T13:18:01;3.50;;;2.63;;
84113;SDS011;74483;48.846;2.358;2024-03-08T13:20:26;3.33;;;2.53;;
84113;SDS011;74483;48.846;2.358;2024-03-08T13:22:53;3.58;;;2.40;;
84113;SDS011;74483;48.846;2.358;2024-03-08T13:25:19;5.25;;;2.92;;
84113;SDS011;74483;48.846;2.358;2024-03-08T13:27:45;4.38;;;2.50;;
84113;SDS011;74483;48.846;2.358;2024-03-08T13:30:12;3.85;;;2.28;;
84113;SDS011;74483;48.846;2.358;2024-03-08T13:32:42;4.47;;;2.15;;
84113;SDS011;74483;48.846;2.358;2024-03-08T13:35:11;3.13;;;2.28;;
84113;SDS011;74483;48.846;2.358;2024-03-08T13:37:40;2.95;;;2.17;;
84113;SDS011;74483;48.846;2.358;2024-03-08T13:40:07;2.90;;;2.38;;
84113;SDS011;74483;48.846;2.358;2024-03-08T13:42:38;2.05;;;1.77;;
84113;SDS011;74483;48.846;2.358;2024-03-08T13:45:08;3.85;;;2.20;;
84113;SDS011;74483;48.846;2.358;2024-03-08T13:47:40;3.55;;;2.13;;
84113;SDS011;74483;48.846;2.358;2024-03-08T13:50:06;3.10;;;2.08;;
84113;SDS011;74483;48.846;2.358;2024-03-08T13:52:37;3.17;;;2.20;;
84113;SDS011;74483;48.846;2.358;2024-03-08T13:55:03;3.92;;;2.17;;
84113;SDS011;74483;48.846;2.358;2024-03-08T13:57:32;3.25;;;2.25;;
84113;SDS011;74483;48.846;2.358;2024-03-08T13:59:58;2.83;;;2.30;;
84113;SDS011;74483;48.846;2.358;2024-03-08T14:02:24;3.88;;;2.08;;
84113;SDS011;74483;48.846;2.358;2024-03-08T14:04:54;3.25;;;2.25;;
84113;SDS011;74483;48.846;2.358;2024-03-08T14:07:22;4.50;;;2.50;;
84113;SDS011;74483;48.846;2.358;2024-03-08T14:09:49;2.95;;;2.00;;
84113;SDS011;74483;48.846;2.358;2024-03-08T14:12:15;2.60;;;2.10;;
84113;SDS011;74483;48.846;2.358;2024-03-08T14:14:41;2.72;;;2.13;;
84113;SDS011;74483;48.846;2.358;2024-03-08T14:17:07;5.47;;;2.20;;
84113;SDS011;74483;48.846;2.358;2024-03-08T14:19:35;3.53;;;2.00;;
84113;SDS011;74483;48.846;2.358;2024-03-08T14:22:01;2.70;;;2.13;;
84113;SDS011;74483;48.846;2.358;2024-03-08T14:24:29;2.85;;;2.10;;
84113;SDS011;74483;48.846;2.358;2024-03-08T14:27:00;5.20;;;2.00;;
84113;SDS011;74483;48.846;2.358;2024-03-08T14:29:28;4.22;;;2.88;;
84113;SDS011;74483;48.846;2.358;2024-03-08T14:31:54;4.50;;;2.28;;
84113;SDS011;74483;48.846;2.358;2024-03-08T14:34:23;2.85;;;2.13;;
84113;SDS011;74483;48.846;2.358;2024-03-08T14:36:52;3.25;;;2.20;;
84113;SDS011;74483;48.846;2.358;2024-03-08T14:39:18;3.30;;;1.92;;
84113;SDS011;74483;48.846;2.358;2024-03-08T14:41:51;3.60;;;2.20;;
84113;SDS011;74483;48.846;2.358;2024-03-08T14:44:21;3.47;;;2.20;;
84113;SDS011;74483;48.846;2.358;2024-03-08T14:46:54;2.45;;;2.00;;
84113;SDS011;74483;48.846;2.358;2024-03-08T14:49:21;3.20;;;1.88;;
84113;SDS011;74483;48.846;2.358;2024-03-08T14:51:47;3.35;;;2.28;;
84113;SDS011;74483;48.846;2.358;2024-03-08T14:54:13;4.70;;;2.20;;
84113;SDS011;74483;48.846;2.358;2024-03-08T14:56:39;3.67;;;2.10;;
84113;SDS011;74483;48.846;2.358;2024-03-08T14:59:07;3.33;;;2.25;;
84113;SDS011;74483;48.846;2.358;2024-03-08T15:01:34;2.30;;;1.85;;